Time;durP1;ratioP1;P1;durP2;ratioP2;P2;SDS_P1;SDS_P2;PMS_P1;PMS_P2;Temp;Humidity;BMP_temperature;BMP_pressure;BME280_temperature;BME280_humidity;BME280_pressure;Samples;Min_cycle;Max_cycle;Signal;HPM_P1;HPM_P2
2024/02/14 00:00:00;;;;;;;0.60;0.60;;;;;;;3.68;81.96;97253.47;29395;218;63004;-56
2024/02/14 00:00:35;;;;;;;0.60;0.60;;;;;;;3.68;82.05;97242.75;29395;256;63008;-56
2024/02/14 00:01:08;;;;;;;0.60;0.60;;;;;;;3.67;82.13;97246.47;29395;207;63004;-56
2024/02/14 00:01:40;;;;;;;0.60;0.60;;;;;;;3.68;82.20;97248.09;29395;209;63009;-56
2024/02/14 00:02:13;;;;;;;0.60;0.60;;;;;;;3.69;82.00;97249.75;29395;245;63005;-56
2024/02/14 00:02:45;;;;;;;0.60;0.60;;;;;;;3.69;82.08;97239.00;29394;207;64014;-68
2024/02/14 00:03:16;;;;;;;0.60;0.60;;;;;;;3.69;82.20;97253.22;29395;297;63005;-72
2024/02/14 00:03:47;;;;;;;0.60;0.60;;;;;;;3.70;82.18;97246.81;29395;225;63009;-56
2024/02/14 00:04:19;;;;;;;0.60;0.60;;;;;;;3.72;81.99;97246.56;29395;247;63005;-56
2024/02/14 00:04:50;;;;;;;0.60;0.60;;;;;;;3.73;81.94;97244.72;29395;207;63009;-56
2024/02/14 00:05:23;;;;;;;0.60;0.60;;;;;;;3.72;81.75;97249.25;29395;207;63005;-56
2024/02/14 00:05:55;;;;;;;0.60;0.60;;;;;;;3.74;81.79;97241.78;29395;203;63009;-55
2024/02/14 00:06:27;;;;;;;0.70;0.70;;;;;;;3.74;81.69;97244.47;29395;245;63011;-56
2024/02/14 00:06:58;;;;;;;0.60;0.60;;;;;;;3.78;81.82;97248.31;29395;258;63009;-56
2024/02/14 00:07:29;;;;;;;0.60;0.60;;;;;;;3.78;81.57;97242.13;29395;218;63004;-56
2024/02/14 00:08:00;;;;;;;0.60;0.60;;;;;;;3.79;81.48;97246.44;29394;197;64011;-55
2024/02/14 00:08:32;;;;;;;0.60;0.60;;;;;;;3.81;81.25;97253.16;29395;281;63004;-56
2024/02/14 00:09:03;;;;;;;0.60;0.60;;;;;;;3.83;81.11;97240.31;29395;229;63009;-56
2024/02/14 00:09:35;;;;;;;1.17;1.12;;;;;;;3.87;81.19;97246.84;29395;210;63005;-55
2024/02/14 00:10:08;;;;;;;0.70;0.70;;;;;;;3.88;80.60;97253.84;29395;198;63009;-55
2024/02/14 00:10:40;;;;;;;0.60;0.60;;;;;;;3.91;80.59;97249.84;29395;282;63005;-56
2024/02/14 00:11:14;;;;;;;0.60;0.60;;;;;;;3.89;80.30;97239.34;29395;209;63009;-55
2024/02/14 00:11:45;;;;;;;0.60;0.60;;;;;;;3.90;80.40;97246.34;29395;233;63005;-56
2024/02/14 00:12:16;;;;;;;0.73;0.73;;;;;;;3.91;80.38;97247.97;29395;207;63009;-55
2024/02/14 00:12:48;;;;;;;0.60;0.60;;;;;;;3.90;80.45;97243.66;29395;205;63005;-56
2024/02/14 00:13:20;;;;;;;0.60;0.60;;;;;;;3.91;80.09;97247.97;29394;224;64013;-55
2024/02/14 00:13:51;;;;;;;0.60;0.60;;;;;;;3.90;80.53;97250.91;29395;217;63007;-55
2024/02/14 00:14:23;;;;;;;0.60;0.60;;;;;;;3.88;80.44;97243.09;29395;202;63009;-57
2024/02/14 00:14:55;;;;;;;0.60;0.60;;;;;;;3.90;80.19;97249.03;29395;252;63004;-55
2024/02/14 00:15:27;;;;;;;0.60;0.60;;;;;;;3.88;80.29;97243.09;29396;225;63009;-56
2024/02/14 00:15:58;;;;;;;0.60;0.60;;;;;;;3.90;80.28;97257.09;29396;203;63004;-55
2024/02/14 00:16:32;;;;;;;0.60;0.60;;;;;;;3.88;80.17;97251.16;29396;287;63009;-55
2024/02/14 00:17:05;;;;;;;0.60;0.60;;;;;;;3.88;80.35;97259.19;29396;250;63011;-56
2024/02/14 00:17:36;;;;;;;0.60;0.60;;;;;;;3.88;80.23;97253.84;29396;202;63009;-56
2024/02/14 00:18:08;;;;;;;1.45;1.45;;;;;;;3.89;80.34;97250.09;29396;221;63005;-57
2024/02/14 00:18:39;;;;;;;0.60;0.60;;;;;;;3.89;80.34;97250.09;29395;239;64013;-67
2024/02/14 00:19:11;;;;;;;0.60;0.60;;;;;;;3.87;80.22;97252.19;29396;207;63005;-54
2024/02/14 00:19:42;;;;;;;0.60;0.60;;;;;;;3.89;80.24;97250.09;29396;272;63009;-55
2024/02/14 00:20:14;;;;;;;0.60;0.60;;;;;;;3.90;80.04;97256.28;29396;199;63005;-55
2024/02/14 00:20:45;;;;;;;0.60;0.60;;;;;;;3.88;80.11;97253.84;29396;228;63009;-56
2024/02/14 00:21:16;;;;;;;0.60;0.60;;;;;;;3.87;80.25;97252.19;29396;206;63004;-56
2024/02/14 00:21:48;;;;;;;0.60;0.60;;;;;;;3.90;80.10;97246.34;29396;238;63009;-56
2024/02/14 00:22:19;;;;;;;0.60;0.60;;;;;;;3.92;79.72;97254.97;29396;197;63016;-57
2024/02/14 00:22:50;;;;;;;0.60;0.60;;;;;;;3.93;79.65;97250.44;29396;211;63009;-56
2024/02/14 00:23:21;;;;;;;0.60;0.60;;;;;;;3.95;79.40;97253.69;29396;217;63004;-56
2024/02/14 00:23:53;;;;;;;0.60;0.60;;;;;;;3.97;79.24;97252.41;29395;291;64013;-57
2024/02/14 00:24:24;;;;;;;1.40;1.40;;;;;;;3.96;79.26;97256.13;29396;291;63006;-56
2024/02/14 00:24:55;;;;;;;0.60;0.60;;;;;;;3.96;79.52;97256.13;29396;231;63009;-57
2024/02/14 00:25:26;;;;;;;0.60;0.60;;;;;;;3.93;79.39;97253.94;29396;293;63005;-57
2024/02/14 00:25:58;;;;;;;0.60;0.60;;;;;;;3.91;79.23;97253.34;29396;196;63009;-57
2024/02/14 00:26:29;;;;;;;0.60;0.60;;;;;;;3.91;79.59;97256.03;29396;224;63005;-57
2024/02/14 00:27:03;;;;;;;0.60;0.60;;;;;;;3.91;79.55;97258.72;29396;228;63009;-55
2024/02/14 00:27:35;;;;;;;0.60;0.60;;;;;;;3.91;79.66;97250.66;29396;230;63004;-56
2024/02/14 00:28:06;;;;;;;0.60;0.60;;;;;;;3.92;79.76;97256.84;29396;243;63009;-55
2024/02/14 00:28:38;;;;;;;0.60;0.60;;;;;;;3.91;79.73;97258.72;29396;224;63004;-55
2024/02/14 00:29:09;;;;;;;0.60;0.60;;;;;;;3.94;79.59;97252.06;29395;235;64013;-55
2024/02/14 00:29:43;;;;;;;0.82;0.82;;;;;;;3.95;79.31;97254.50;29396;254;63004;-55
2024/02/14 00:30:15;;;;;;;0.60;0.60;;;;;;;3.95;79.62;97253.69;29396;285;63008;-55
2024/02/14 00:30:46;;;;;;;0.60;0.60;;;;;;;3.95;79.51;97249.13;29396;232;63004;-56
2024/02/14 00:31:21;;;;;;;0.80;0.80;;;;;;;3.95;79.60;97249.13;29396;202;63008;-55
2024/02/14 00:31:53;;;;;;;0.60;0.60;;;;;;;4.00;79.39;97248.41;29396;197;63014;-56
2024/02/14 00:32:24;;;;;;;0.60;0.60;;;;;;;4.01;79.10;97248.16;29396;294;63009;-56
2024/02/14 00:32:55;;;;;;;0.60;0.60;;;;;;;4.00;79.01;97249.22;29396;202;63000;-57
2024/02/14 00:33:27;;;;;;;0.60;0.60;;;;;;;3.98;79.43;97248.66;29396;218;63009;-54
2024/02/14 00:33:58;;;;;;;0.60;0.60;;;;;;;3.97;79.35;97244.34;29396;203;63005;-56
2024/02/14 00:34:29;;;;;;;0.60;0.60;;;;;;;3.98;79.44;97250.53;29395;267;64013;-56
2024/02/14 00:35:00;;;;;;;0.60;0.60;;;;;;;3.99;79.55;97250.28;29396;208;63004;-55
2024/02/14 00:35:32;;;;;;;0.60;0.60;;;;;;;4.01;79.29;97248.16;29396;235;63009;-57
2024/02/14 00:36:04;;;;;;;0.60;0.60;;;;;;;4.06;79.14;97252.00;29396;208;63004;-56
2024/02/14 00:36:35;;;;;;;0.60;0.60;;;;;;;4.06;79.12;97250.13;29396;204;63009;-55
2024/02/14 00:37:06;;;;;;;0.60;0.60;;;;;;;4.07;78.80;97242.87;29395;236;64004;-55
2024/02/14 00:37:38;;;;;;;0.60;0.60;;;;;;;4.06;79.06;97252.00;29396;288;63008;-55
2024/02/14 00:38:09;;;;;;;0.80;0.80;;;;;;;4.06;79.04;97246.62;29396;287;63004;-56
2024/02/14 00:38:40;;;;;;;0.60;0.60;;;;;;;4.06;78.88;97243.94;29396;207;63023;-55
2024/02/14 00:39:12;;;;;;;0.60;0.60;;;;;;;4.03;79.15;97254.12;29396;208;63005;-55
2024/02/14 00:39:43;;;;;;;0.60;0.60;;;;;;;4.04;79.21;97247.69;29395;231;64014;-56
2024/02/14 00:40:18;;;;;;;0.60;0.60;;;;;;;4.04;79.32;97250.37;29396;259;63005;-55
2024/02/14 00:40:50;;;;;;;0.60;0.60;;;;;;;4.03;79.19;97251.44;29396;252;63009;-55
2024/02/14 00:41:22;;;;;;;0.60;0.60;;;;;;;4.03;79.18;97248.75;29396;202;63005;-57
2024/02/14 00:41:54;;;;;;;0.60;0.60;;;;;;;4.01;79.16;97248.16;29396;202;63009;-58
2024/02/14 00:42:26;;;;;;;0.60;0.60;;;;;;;4.04;79.09;97250.37;29396;235;63004;-55
2024/02/14 00:42:58;;;;;;;0.60;0.60;;;;;;;4.11;78.62;97246.72;29396;229;63009;-56
2024/02/14 00:43:29;;;;;;;0.70;0.70;;;;;;;4.13;78.65;97249.97;29396;310;63004;-55
2024/02/14 00:44:02;;;;;;;0.60;0.60;;;;;;;4.15;78.57;97254.06;29396;230;63009;-56
2024/02/14 00:44:34;;;;;;;0.60;0.60;;;;;;;4.14;78.58;97255.13;29396;298;63004;-55
2024/02/14 00:45:10;;;;;;;0.60;0.60;;;;;;;4.15;78.64;97258.63;29395;232;64013;-55
2024/02/14 00:45:41;;;;;;;0.52;0.52;;;;;;;4.11;78.81;97249.41;29396;256;63009;-56
2024/02/14 00:46:18;;;;;;;0.60;0.60;;;;;;;4.13;78.82;97255.34;29396;298;63009;-57
2024/02/14 00:46:50;;;;;;;0.60;0.60;;;;;;;4.13;79.08;97250.78;29396;270;63005;-56
2024/02/14 00:47:21;;;;;;;0.60;0.60;;;;;;;4.14;78.95;97251.63;29396;240;63009;-55
2024/02/14 00:47:52;;;;;;;0.60;0.60;;;;;;;4.15;78.88;97258.63;29396;239;63005;-55
2024/02/14 00:48:24;;;;;;;0.60;0.60;;;;;;;4.13;78.94;97253.47;29396;233;63009;-55
2024/02/14 00:48:56;;;;;;;0.60;0.60;;;;;;;4.14;78.73;97257.81;29396;282;63015;-55
2024/02/14 00:49:28;;;;;;;0.60;0.60;;;;;;;4.15;79.10;97258.63;29396;234;63009;-55
2024/02/14 00:49:59;;;;;;;0.60;0.60;;;;;;;4.15;79.44;97258.63;29396;226;63004;-55
2024/02/14 00:50:31;;;;;;;0.60;0.60;;;;;;;4.17;78.77;97257.28;29395;223;64013;-55
2024/02/14 00:51:03;;;;;;;0.50;0.50;;;;;;;4.18;79.08;97263.47;29396;215;63009;-55
2024/02/14 00:51:34;;;;;;;0.60;0.60;;;;;;;4.15;79.11;97254.06;29396;236;63009;-69
2024/02/14 00:52:06;;;;;;;0.60;0.60;;;;;;;4.15;79.73;97263.97;29396;246;63004;-55
2024/02/14 00:52:38;;;;;;;0.60;0.60;;;;;;;4.12;79.83;97264.47;29396;211;63008;-57
2024/02/14 00:53:09;;;;;;;0.60;0.60;;;;;;;4.10;79.98;97262.03;29396;217;63004;-54
2024/02/14 00:53:40;;;;;;;0.60;0.60;;;;;;;4.12;79.99;97264.47;29396;200;63009;-57
2024/02/14 00:54:11;;;;;;;0.60;0.60;;;;;;;4.11;80.08;97265.53;29396;232;63005;-55
2024/02/14 00:54:43;;;;;;;0.60;0.60;;;;;;;4.10;80.25;97262.03;29396;259;63009;-67
2024/02/14 00:55:14;;;;;;;0.60;0.60;;;;;;;4.16;79.98;97262.94;29396;221;63005;-54
2024/02/14 00:55:46;;;;;;;0.60;0.60;;;;;;;4.16;79.65;97261.03;29395;209;64013;-55
2024/02/14 00:56:18;;;;;;;0.60;0.60;;;;;;;4.16;79.90;97262.94;29396;248;63005;-56
2024/02/14 00:56:49;;;;;;;0.60;0.60;;;;;;;4.12;79.78;97259.91;29396;303;63009;-55
2024/02/14 00:57:20;;;;;;;0.60;0.60;;;;;;;4.11;80.21;97263.66;29396;224;63005;-56
2024/02/14 00:57:52;;;;;;;0.50;0.50;;;;;;;4.12;80.67;97267.16;29396;221;63009;-55
2024/02/14 00:58:23;;;;;;;0.60;0.60;;;;;;;4.12;80.67;97264.47;29396;243;63004;-55
2024/02/14 00:58:54;;;;;;;0.60;0.60;;;;;;;4.11;81.07;97269.03;29397;202;63009;-56
2024/02/14 00:59:26;;;;;;;0.60;0.60;;;;;;;4.11;81.24;97273.56;29397;217;63011;-56
2024/02/14 00:59:57;;;;;;;0.60;0.60;;;;;;;4.13;81.44;97271.47;29397;210;63004;-55
2024/02/14 01:00:28;;;;;;;0.60;0.60;;;;;;;4.12;81.16;97265.28;29397;255;63004;-56
2024/02/14 01:00:59;;;;;;;0.60;0.60;;;;;;;4.13;81.64;97271.47;29396;230;64014;-56
2024/02/14 01:01:31;;;;;;;0.60;0.60;;;;;;;4.16;81.62;97269.09;29397;268;63005;-55
2024/02/14 01:02:02;;;;;;;0.70;0.70;;;;;;;4.19;80.77;97270.47;29397;295;63009;-55
2024/02/14 01:02:33;;;;;;;0.55;0.55;;;;;;;4.21;80.65;97273.72;29397;252;63005;-55
2024/02/14 01:03:07;;;;;;;0.60;0.60;;;;;;;4.22;80.47;97261.94;29397;297;63009;-55
2024/02/14 01:03:38;;;;;;;0.60;0.60;;;;;;;4.20;80.69;97264.03;29397;241;63005;-56
2024/02/14 01:04:09;;;;;;;0.60;0.60;;;;;;;4.20;80.51;97270.22;29396;203;63009;-55
2024/02/14 01:04:40;;;;;;;0.60;0.60;;;;;;;4.20;80.50;97261.34;29397;219;63005;-56
2024/02/14 01:05:12;;;;;;;0.60;0.60;;;;;;;4.23;79.95;97266.25;29397;266;63009;-55
2024/02/14 01:05:45;;;;;;;0.60;0.60;;;;;;;4.26;80.13;97265.75;29397;207;63004;-55
2024/02/14 01:06:17;;;;;;;0.60;0.60;;;;;;;4.27;79.93;97262.84;29396;278;64013;-55
2024/02/14 01:06:49;;;;;;;0.60;0.60;;;;;;;4.26;79.89;97260.38;29397;203;63008;-55
2024/02/14 01:07:21;;;;;;;0.60;0.60;;;;;;;4.26;80.07;97265.75;29397;254;63009;-55
2024/02/14 01:07:53;;;;;;;0.60;0.60;;;;;;;4.28;80.12;97263.66;29397;212;63004;-55
2024/02/14 01:08:25;;;;;;;0.60;0.60;;;;;;;4.28;79.98;97263.66;29397;208;63009;-55
2024/02/14 01:08:56;;;;;;;0.60;0.60;;;;;;;4.29;80.26;97258.03;29397;218;63011;-55
2024/02/14 01:09:27;;;;;;;1.02;1.02;;;;;;;4.32;80.48;97265.59;29397;231;63009;-56
2024/02/14 01:09:58;;;;;;;0.60;0.60;;;;;;;4.34;80.24;97260.00;29397;245;63011;-56
2024/02/14 01:10:29;;;;;;;0.60;0.60;;;;;;;4.34;81.93;97270.75;29397;199;63009;-55
2024/02/14 01:11:00;;;;;;;0.50;0.50;;;;;;;4.33;82.45;97274.47;29397;207;63015;-55
2024/02/14 01:11:32;;;;;;;0.50;0.50;;;;;;;4.29;82.28;97278.72;29396;255;64013;-55
2024/02/14 01:12:04;;;;;;;0.60;0.60;;;;;;;4.28;82.15;97277.09;29397;287;63005;-55
2024/02/14 01:12:35;;;;;;;0.60;0.60;;;;;;;4.27;82.28;97272.75;29396;199;63009;-55
2024/02/14 01:13:07;;;;;;;0.60;0.60;;;;;;;4.24;82.84;97275.94;29396;199;63004;-56
2024/02/14 01:13:38;;;;;;;0.50;0.50;;;;;;;4.24;82.28;97281.31;29396;239;63009;-55
2024/02/14 01:14:09;;;;;;;0.60;0.60;;;;;;;4.24;82.51;97284.00;29396;210;63004;-55
2024/02/14 01:14:41;;;;;;;0.60;0.60;;;;;;;4.23;82.50;97287.72;29396;202;63009;-55
2024/02/14 01:15:13;;;;;;;0.60;0.60;;;;;;;4.21;83.10;97279.09;29396;231;63004;-55
2024/02/14 01:15:45;;;;;;;0.60;0.60;;;;;;;4.19;84.28;97287.41;29396;243;63008;-56
2024/02/14 01:16:16;;;;;;;1.08;1.08;;;;;;;4.17;84.03;97284.16;29395;202;64005;-55
2024/02/14 01:16:51;;;;;;;0.60;0.60;;;;;;;4.17;83.75;97283.31;29396;206;64014;-55
2024/02/14 01:17:25;;;;;;;0.68;0.68;;;;;;;4.16;84.25;97287.09;29396;290;63005;-55
2024/02/14 01:17:56;;;;;;;0.60;0.60;;;;;;;4.17;83.75;97292.19;29396;231;63009;-55
2024/02/14 01:18:28;;;;;;;0.60;0.60;;;;;;;4.16;84.27;97287.09;29396;231;63005;-56
2024/02/14 01:19:00;;;;;;;0.60;0.60;;;;;;;4.14;84.36;97290.03;29396;255;63014;-54
2024/02/14 01:19:31;;;;;;;0.60;0.60;;;;;;;4.11;84.28;97290.50;29396;211;63005;-55
2024/02/14 01:20:03;;;;;;;0.60;0.60;;;;;;;4.11;84.60;97284.31;29396;202;63009;-55
2024/02/14 01:20:38;;;;;;;1.15;1.15;;;;;;;4.11;84.12;97281.63;29396;253;63004;-55
2024/02/14 01:21:09;;;;;;;0.60;0.60;;;;;;;4.11;83.92;97284.31;29396;198;63023;-54
2024/02/14 01:21:40;;;;;;;0.60;0.60;;;;;;;4.11;83.96;97284.31;29396;243;63004;-69
2024/02/14 01:22:12;;;;;;;0.60;0.60;;;;;;;4.11;83.56;97282.44;29395;240;64013;-55
2024/02/14 01:22:43;;;;;;;0.60;0.60;;;;;;;4.11;84.13;97278.94;29396;206;63014;-56
2024/02/14 01:23:14;;;;;;;0.60;0.60;;;;;;;4.11;85.07;97287.00;29396;229;63008;-54
2024/02/14 01:23:45;;;;;;;0.60;0.60;;;;;;;4.11;85.11;97284.31;29396;198;63005;-55
2024/02/14 01:24:17;;;;;;;0.60;0.60;;;;;;;4.11;84.49;97290.50;29396;206;63009;-55
2024/02/14 01:24:48;;;;;;;0.60;0.60;;;;;;;4.11;84.93;97287.00;29396;276;63005;-55
2024/02/14 01:25:19;;;;;;;0.60;0.60;;;;;;;4.10;84.90;97282.69;29396;202;63016;-55
2024/02/14 01:25:50;;;;;;;0.60;0.60;;;;;;;4.09;84.72;97283.75;29396;226;63010;-55
2024/02/14 01:26:22;;;;;;;0.60;0.60;;;;;;;4.09;84.45;97281.88;29396;252;63009;-56
2024/02/14 01:26:54;;;;;;;0.57;0.57;;;;;;;4.11;85.20;97278.94;29396;245;63005;-55
2024/02/14 01:27:28;;;;;;;0.70;0.70;;;;;;;4.12;84.65;97277.91;29395;238;64013;-55
2024/02/14 01:28:00;;;;;;;0.60;0.60;;;;;;;4.13;85.43;97282.22;29396;248;63015;-70
2024/02/14 01:28:31;;;;;;;0.60;0.60;;;;;;;4.13;85.18;97276.84;29396;238;63009;-56
2024/02/14 01:29:05;;;;;;;0.60;0.60;;;;;;;4.15;85.00;97272.03;29396;262;63004;-55
2024/02/14 01:29:40;;;;;;;0.60;0.60;;;;;;;4.19;84.59;97275.84;29396;205;63009;-55
2024/02/14 01:30:12;;;;;;;0.50;0.50;;;;;;;4.19;84.66;97271.28;29396;265;63004;-55
2024/02/14 01:30:43;;;;;;;0.60;0.60;;;;;;;4.19;84.64;97275.84;29396;264;63008;-56
2024/02/14 01:31:15;;;;;;;0.60;0.60;;;;;;;4.19;85.02;97273.16;29396;200;63005;-55
2024/02/14 01:31:46;;;;;;;0.60;0.60;;;;;;;4.21;84.69;97274.53;29397;238;63009;-55
2024/02/14 01:32:17;;;;;;;0.60;0.60;;;;;;;4.21;84.89;97279.09;29396;232;63005;-55
2024/02/14 01:32:49;;;;;;;0.60;0.60;;;;;;;4.21;84.48;97274.53;29395;222;64013;-55
2024/02/14 01:33:20;;;;;;;0.60;0.60;;;;;;;4.20;84.94;97272.09;29396;247;63005;-55
2024/02/14 01:33:51;;;;;;;0.60;0.60;;;;;;;4.21;84.55;97268.34;29396;217;63009;-55
2024/02/14 01:34:23;;;;;;;0.60;0.60;;;;;;;4.21;84.55;97273.72;29396;216;63005;-55
2024/02/14 01:34:55;;;;;;;0.60;0.60;;;;;;;4.20;85.08;97274.78;29396;227;63009;-55
2024/02/14 01:35:26;;;;;;;0.60;0.60;;;;;;;4.20;84.66;97272.91;29396;199;63004;-55
2024/02/14 01:35:58;;;;;;;0.60;0.60;;;;;;;4.20;85.65;97278.28;29396;199;63009;-55
2024/02/14 01:36:29;;;;;;;0.60;0.60;;;;;;;4.21;85.24;97273.72;29396;206;63004;-55
2024/02/14 01:37:00;;;;;;;1.15;1.15;;;;;;;4.20;85.83;97272.09;29396;204;63008;-55
2024/02/14 01:37:32;;;;;;;0.60;0.60;;;;;;;4.20;85.85;97267.53;29397;204;63004;-55
2024/02/14 01:38:06;;;;;;;0.60;0.60;;;;;;;4.22;85.74;97270.00;29395;284;64013;-55
2024/02/14 01:38:37;;;;;;;0.60;0.60;;;;;;;4.23;85.30;97268.94;29396;230;63017;-55
2024/02/14 01:39:11;;;;;;;0.60;0.60;;;;;;;4.23;85.51;97264.37;29395;284;64009;-55
2024/02/14 01:39:42;;;;;;;0.60;0.60;;;;;;;4.25;84.94;97270.31;29396;216;63005;-55
2024/02/14 01:40:15;;;;;;;0.60;0.60;;;;;;;4.27;85.43;97267.38;29396;248;63009;-55
2024/02/14 01:40:47;;;;;;;0.60;0.60;;;;;;;4.28;84.92;97263.66;29396;205;63005;-55
2024/02/14 01:41:19;;;;;;;0.60;0.60;;;;;;;4.29;85.10;97270.66;29396;203;63009;-55
2024/02/14 01:41:51;;;;;;;0.60;0.60;;;;;;;4.29;85.05;97259.91;29396;293;63005;-55
2024/02/14 01:42:23;;;;;;;0.60;0.60;;;;;;;4.29;84.53;97255.34;29396;292;63009;-55
2024/02/14 01:42:55;;;;;;;0.60;0.60;;;;;;;4.30;84.83;97256.16;29396;286;63004;-55
2024/02/14 01:43:26;;;;;;;0.60;0.60;;;;;;;4.31;84.84;97260.47;29395;236;64013;-56
2024/02/14 01:43:59;;;;;;;0.60;0.60;;;;;;;4.30;85.43;97261.53;29396;199;63004;-55
2024/02/14 01:44:30;;;;;;;0.60;0.60;;;;;;;4.29;85.01;97254.53;29396;202;63025;-55
2024/02/14 01:45:03;;;;;;;0.60;0.60;;;;;;;4.30;84.87;97250.78;29396;214;63004;-55
2024/02/14 01:45:34;;;;;;;0.60;0.60;;;;;;;4.28;84.76;97253.72;29396;231;63009;-55
2024/02/14 01:46:06;;;;;;;0.60;0.60;;;;;;;4.28;85.95;97259.09;29396;236;63010;-55
2024/02/14 01:46:38;;;;;;;0.60;0.60;;;;;;;4.29;85.38;97249.97;29396;204;63009;-55
2024/02/14 01:47:12;;;;;;;0.60;0.60;;;;;;;4.31;85.41;97247.03;29396;224;63005;-55
2024/02/14 01:47:45;;;;;;;0.65;0.65;;;;;;;4.30;85.56;97242.72;29396;234;63009;-55
2024/02/14 01:48:18;;;;;;;0.60;0.60;;;;;;;4.30;85.62;97253.47;29396;213;63005;-55
2024/02/14 01:48:50;;;;;;;0.60;0.60;;;;;;;4.30;85.48;97256.16;29395;237;64013;-55
2024/02/14 01:49:22;;;;;;;0.60;0.60;;;;;;;4.29;85.51;97249.16;29396;202;63005;-55
2024/02/14 01:49:54;;;;;;;0.60;0.60;;;;;;;4.29;85.58;97254.53;29396;237;63009;-67
2024/02/14 01:50:29;;;;;;;0.60;0.60;;;;;;;4.30;85.09;97256.16;29396;208;63004;-55
2024/02/14 01:51:03;;;;;;;0.60;0.60;;;;;;;4.30;84.98;97240.84;29396;252;63009;-55
2024/02/14 01:51:36;;;;;;;0.60;0.60;;;;;;;4.35;84.75;97248.19;29396;205;63018;-55
2024/02/14 01:52:09;;;;;;;0.60;0.60;;;;;;;4.35;85.26;97258.94;29396;219;63008;-56
2024/02/14 01:52:41;;;;;;;0.60;0.60;;;;;;;4.38;84.90;97253.06;29396;264;63004;-55
2024/02/14 01:53:13;;;;;;;0.60;0.60;;;;;;;4.38;84.95;97245.03;29396;286;63009;-55
2024/02/14 01:53:44;;;;;;;0.60;0.60;;;;;;;4.37;85.28;97251.44;29396;249;63017;-55
2024/02/14 01:54:17;;;;;;;0.60;0.60;;;;;;;4.36;84.85;97250.63;29395;235;64014;-55
2024/02/14 01:54:49;;;;;;;0.60;0.60;;;;;;;4.35;85.90;97265.13;29396;261;63005;-55
2024/02/14 01:55:26;;;;;;;0.60;0.60;;;;;;;4.34;86.09;97262.69;29396;213;63009;-55
2024/02/14 01:56:00;;;;;;;0.60;0.60;;;;;;;4.34;85.91;97265.37;29396;231;63005;-55
2024/02/14 01:56:31;;;;;;;0.60;0.60;;;;;;;4.34;85.72;97251.94;29396;235;63009;-56
2024/02/14 01:57:04;;;;;;;0.60;0.60;;;;;;;4.34;85.21;97258.13;29396;209;63004;-55
2024/02/14 01:57:38;;;;;;;0.60;0.60;;;;;;;4.36;85.36;97255.19;29396;232;63009;-55
2024/02/14 01:58:10;;;;;;;0.60;0.60;;;;;;;4.40;85.14;97250.97;29396;268;63004;-56
2024/02/14 01:58:42;;;;;;;0.60;0.60;;;;;;;4.43;85.21;97260.41;29396;221;63009;-55
2024/02/14 01:59:18;;;;;;;0.60;0.60;;;;;;;4.44;85.02;97252.09;29396;197;63004;-56
2024/02/14 01:59:52;;;;;;;0.60;0.60;;;;;;;4.44;84.89;97260.16;29395;278;64013;-56
2024/02/14 02:00:25;;;;;;;0.60;0.60;;;;;;;4.45;85.14;97250.22;29396;204;63005;-55
2024/02/14 02:00:58;;;;;;;0.60;0.60;;;;;;;4.46;84.86;97251.88;29396;262;63017;-55
2024/02/14 02:01:30;;;;;;;0.60;0.60;;;;;;;4.45;85.28;97252.91;29397;216;63005;-55
2024/02/14 02:02:02;;;;;;;0.60;0.60;;;;;;;4.45;84.94;97252.91;29397;216;63009;-55
2024/02/14 02:02:37;;;;;;;0.60;0.60;;;;;;;4.45;84.80;97248.38;29397;292;63005;-55
2024/02/14 02:03:10;;;;;;;0.60;0.60;;;;;;;4.47;85.00;97253.50;29397;220;63009;-54
2024/02/14 02:03:42;;;;;;;0.60;0.60;;;;;;;4.48;85.10;97255.94;29397;197;63005;-55
2024/02/14 02:04:13;;;;;;;0.60;0.60;;;;;;;4.47;85.13;97251.63;29397;213;63009;-55
2024/02/14 02:04:45;;;;;;;0.60;0.60;;;;;;;4.47;85.00;97254.31;29397;251;63004;-55
2024/02/14 02:05:16;;;;;;;0.60;0.60;;;;;;;4.48;84.77;97253.25;29394;234;64013;-55
2024/02/14 02:05:48;;;;;;;0.60;0.60;;;;;;;4.49;85.12;97243.31;29395;248;63004;-55
2024/02/14 02:06:19;;;;;;;0.60;0.60;;;;;;;4.49;85.30;97244.13;29395;215;63009;-55
2024/02/14 02:06:52;;;;;;;0.60;0.60;;;;;;;4.49;85.20;97243.31;29395;239;63014;-55
2024/02/14 02:07:24;;;;;;;0.60;0.60;;;;;;;4.49;85.17;97249.50;29395;270;63008;-55
2024/02/14 02:07:55;;;;;;;0.60;0.60;;;;;;;4.48;85.58;97247.88;29395;228;63004;-55
2024/02/14 02:08:27;;;;;;;0.60;0.60;;;;;;;4.48;85.55;97247.88;29395;240;63009;-56
2024/02/14 02:08:59;;;;;;;0.60;0.60;;;;;;;4.48;85.44;97253.25;29395;218;63005;-55
2024/02/14 02:09:31;;;;;;;0.60;0.60;;;;;;;4.47;85.09;97246.25;29395;263;63009;-55
2024/02/14 02:10:04;;;;;;;0.60;0.60;;;;;;;4.49;85.26;97248.69;29395;205;63005;-55
2024/02/14 02:10:36;;;;;;;0.60;0.60;;;;;;;4.48;85.16;97242.50;29393;226;64013;-54
2024/02/14 02:11:07;;;;;;;0.60;0.60;;;;;;;4.50;85.91;97247.63;29395;219;63005;-55
2024/02/14 02:11:49;;;;;;;0.60;0.60;;;;;;;4.53;84.86;97242.56;29395;202;63009;-55
2024/02/14 02:12:27;;;;;;;0.60;0.60;;;;;;;4.55;85.10;97247.69;29395;249;63004;-55
2024/02/14 02:13:01;;;;;;;0.60;0.60;;;;;;;4.54;85.42;97246.06;29395;204;63009;-55
2024/02/14 02:13:32;;;;;;;0.60;0.60;;;;;;;4.54;85.17;97252.25;29395;218;63004;-55
2024/02/14 02:14:03;;;;;;;0.60;0.60;;;;;;;4.53;85.07;97247.94;29395;222;63009;-55
2024/02/14 02:14:35;;;;;;;0.60;0.60;;;;;;;4.55;84.89;97242.31;29395;202;63010;-55
2024/02/14 02:15:10;;;;;;;0.60;0.60;;;;;;;4.56;84.50;97243.94;29395;202;63008;-55
2024/02/14 02:15:46;;;;;;;0.60;0.60;;;;;;;4.57;85.09;97245.56;29393;217;64009;-56
2024/02/14 02:16:21;;;;;;;0.60;0.60;;;;;;;4.57;84.85;97242.87;29395;271;63014;-55
2024/02/14 02:16:53;;;;;;;0.60;0.60;;;;;;;4.57;84.78;97243.69;29395;198;63005;-55
2024/02/14 02:17:25;;;;;;;0.60;0.60;;;;;;;4.57;84.83;97241.00;29395;221;63009;-56
2024/02/14 02:17:59;;;;;;;0.60;0.60;;;;;;;4.57;84.47;97241.00;29394;258;63005;-55
2024/02/14 02:18:33;;;;;;;0.60;0.60;;;;;;;4.56;85.03;97242.06;29395;240;63009;-55
2024/02/14 02:19:08;;;;;;;0.60;0.60;;;;;;;4.55;85.26;97237.75;29395;244;63005;-55
2024/02/14 02:19:39;;;;;;;0.60;0.60;;;;;;;4.55;84.98;97237.75;29395;255;63009;-55
2024/02/14 02:20:11;;;;;;;0.60;0.60;;;;;;;4.54;84.92;97235.31;29395;296;63004;-55
2024/02/14 02:20:43;;;;;;;0.60;0.60;;;;;;;4.53;84.92;97239.88;29393;307;64013;-55
2024/02/14 02:21:14;;;;;;;0.60;0.60;;;;;;;4.54;85.05;97241.50;29395;286;63004;-55
2024/02/14 02:21:46;;;;;;;0.60;0.60;;;;;;;4.56;84.69;97234.00;29395;215;63009;-54
2024/02/14 02:22:20;;;;;;;0.60;0.60;;;;;;;4.57;85.09;97241.00;29395;199;63004;-55
2024/02/14 02:22:52;;;;;;;0.60;0.60;;;;;;;4.56;84.74;97239.38;29395;202;63008;-55
2024/02/14 02:23:23;;;;;;;0.50;0.50;;;;;;;4.56;84.96;97242.06;29395;275;63005;-55
2024/02/14 02:23:54;;;;;;;0.60;0.60;;;;;;;4.57;84.66;97241.00;29395;202;63009;-55
2024/02/14 02:24:26;;;;;;;0.60;0.60;;;;;;;4.59;84.84;97238.88;29395;253;63005;-54
2024/02/14 02:24:57;;;;;;;0.60;0.60;;;;;;;4.60;84.83;97239.69;29395;248;63009;-55
2024/02/14 02:25:29;;;;;;;0.60;0.60;;;;;;;4.59;85.05;97241.56;29395;215;63005;-54
2024/02/14 02:26:00;;;;;;;0.60;0.60;;;;;;;4.59;84.85;97238.06;29393;239;64013;-55
2024/02/14 02:26:31;;;;;;;0.60;0.60;;;;;;;4.57;85.17;97240.19;29395;265;63005;-54
2024/02/14 02:27:07;;;;;;;0.60;0.60;;;;;;;4.55;85.10;97242.31;29395;265;63009;-55
2024/02/14 02:27:38;;;;;;;0.60;0.60;;;;;;;4.54;85.28;97246.88;29395;243;63004;-55
2024/02/14 02:28:10;;;;;;;0.60;0.60;;;;;;;4.55;85.10;97232.38;29395;251;63009;-55
2024/02/14 02:28:45;;;;;;;0.60;0.60;;;;;;;4.58;85.22;97239.94;29395;219;63007;-55
2024/02/14 02:29:19;;;;;;;0.60;0.60;;;;;;;4.57;86.08;97237.50;29395;202;63009;-55
2024/02/14 02:29:51;;;;;;;0.60;0.60;;;;;;;4.56;85.93;97239.38;29395;215;63004;-55
2024/02/14 02:30:22;;;;;;;0.60;0.60;;;;;;;4.55;85.90;97232.38;29395;297;63008;-55
2024/02/14 02:30:55;;;;;;;0.60;0.60;;;;;;;4.53;86.17;97234.50;29395;268;63005;-54
2024/02/14 02:31:26;;;;;;;0.60;0.60;;;;;;;4.50;86.74;97229.63;29393;248;64014;-54
2024/02/14 02:31:58;;;;;;;0.60;0.60;;;;;;;4.49;86.61;97228.00;29395;203;63005;-55
2024/02/14 02:32:29;;;;;;;0.60;0.60;;;;;;;4.47;86.22;97229.31;29395;207;63009;-55
2024/02/14 02:33:00;;;;;;;0.60;0.60;;;;;;;4.46;86.39;97228.50;29395;252;63008;-55
2024/02/14 02:33:31;;;;;;;0.60;0.60;;;;;;;4.45;85.98;97232.25;29395;246;63009;-55
2024/02/14 02:34:03;;;;;;;0.60;0.60;;;;;;;4.45;86.56;97229.56;29395;245;63005;-55
2024/02/14 02:34:36;;;;;;;0.60;0.60;;;;;;;4.43;86.46;97230.84;29395;198;63009;-55